sensor_id;sensor_type;location;lat;lon;timestamp;temperature;humidity
2106;DHT22;1059;52.548;13.408;2023-05-18T00:00:44;10.00;99.90
2106;DHT22;1059;52.548;13.408;2023-05-18T00:03:11;10.00;99.90
2106;DHT22;1059;52.548;13.408;2023-05-18T00:05:38;10.00;99.90
2106;DHT22;1059;52.548;13.408;2023-05-18T00:08:08;9.90;99.90
2106;DHT22;1059;52.548;13.408;2023-05-18T00:10:35;9.90;99.90
2106;DHT22;1059;52.548;13.408;2023-05-18T00:13:02;9.90;99.90
2106;DHT22;1059;52.548;13.408;2023-05-18T00:15:29;9.90;99.90
2106;DHT22;1059;52.548;13.408;2023-05-18T00:17:56;9.80;99.90
2106;DHT22;1059;52.548;13.408;2023-05-18T00:20:23;9.90;99.90
2106;DHT22;1059;52.548;13.408;2023-05-18T00:22:51;9.80;99.90
2106;DHT22;1059;52.548;13.408;2023-05-18T00:25:19;9.80;99.90
2106;DHT22;1059;52.548;13.408;2023-05-18T00:27:46;9.80;99.90
2106;DHT22;1059;52.548;13.408;2023-05-18T00:30:14;9.80;99.90
2106;DHT22;1059;52.548;13.408;2023-05-18T00:32:41;9.80;99.90
2106;DHT22;1059;52.548;13.408;2023-05-18T00:35:08;9.70;99.90
2106;DHT22;1059;52.548;13.408;2023-05-18T00:37:35;9.70;99.90
2106;DHT22;1059;52.548;13.408;2023-05-18T00:40:02;9.70;99.90
2106;DHT22;1059;52.548;13.408;2023-05-18T00:42:32;9.70;99.90
2106;DHT22;1059;52.548;13.408;2023-05-18T00:44:59;9.70;99.90
2106;DHT22;1059;52.548;13.408;2023-05-18T00:47:26;9.70;99.90
2106;DHT22;1059;52.548;13.408;2023-05-18T00:49:53;9.60;99.90
2106;DHT22;1059;52.548;13.408;2023-05-18T00:52:20;9.60;99.90
2106;DHT22;1059;52.548;13.408;2023-05-18T00:54:46;9.60;99.90
2106;DHT22;1059;52.548;13.408;2023-05-18T00:57:14;9.60;99.90
2106;DHT22;1059;52.548;13.408;2023-05-18T00:59:45;9.60;99.90
2106;DHT22;1059;52.548;13.408;2023-05-18T01:02:12;9.60;99.90
2106;DHT22;1059;52.548;13.408;2023-05-18T01:04:39;9.50;99.90
2106;DHT22;1059;52.548;13.408;2023-05-18T01:07:07;9.50;99.90
2106;DHT22;1059;52.548;13.408;2023-05-18T01:09:36;9.50;99.90
2106;DHT22;1059;52.548;13.408;2023-05-18T01:12:08;9.40;99.90
2106;DHT22;1059;52.548;13.408;2023-05-18T01:14:40;9.50;99.90
2106;DHT22;1059;52.548;13.408;2023-05-18T01:17:22;9.40;99.90
2106;DHT22;1059;52.548;13.408;2023-05-18T01:20:11;9.40;99.90
2106;DHT22;1059;52.548;13.408;2023-05-18T01:22:49;9.40;99.90
2106;DHT22;1059;52.548;13.408;2023-05-18T01:25:30;9.30;99.90
2106;DHT22;1059;52.548;13.408;2023-05-18T01:28:02;9.30;99.90
2106;DHT22;1059;52.548;13.408;2023-05-18T01:30:32;9.30;99.90
2106;DHT22;1059;52.548;13.408;2023-05-18T01:32:59;9.30;99.90
2106;DHT22;1059;52.548;13.408;2023-05-18T01:35:26;9.30;99.90
2106;DHT22;1059;52.548;13.408;2023-05-18T01:37:53;9.30;99.90
2106;DHT22;1059;52.548;13.408;2023-05-18T01:40:20;9.30;99.90
2106;DHT22;1059;52.548;13.408;2023-05-18T01:42:50;9.30;99.90
2106;DHT22;1059;52.548;13.408;2023-05-18T01:45:26;9.20;99.90
2106;DHT22;1059;52.548;13.408;2023-05-18T01:47:56;9.20;99.90
2106;DHT22;1059;52.548;13.408;2023-05-18T01:50:30;9.20;99.90
2106;DHT22;1059;52.548;13.408;2023-05-18T01:53:05;9.20;99.90
2106;DHT22;1059;52.548;13.408;2023-05-18T01:55:35;9.20;99.90
2106;DHT22;1059;52.548;13.408;2023-05-18T01:58:03;9.10;99.90
2106;DHT22;1059;52.548;13.408;2023-05-18T02:00:33;9.10;99.90
2106;DHT22;1059;52.548;13.408;2023-05-18T02:03:01;9.10;99.90
2106;DHT22;1059;52.548;13.408;2023-05-18T02:05:27;9.10;99.90
2106;DHT22;1059;52.548;13.408;2023-05-18T02:07:54;9.00;99.90
2106;DHT22;1059;52.548;13.408;2023-05-18T02:10:21;9.00;99.90
2106;DHT22;1059;52.548;13.408;2023-05-18T02:12:48;9.00;99.90
2106;DHT22;1059;52.548;13.408;2023-05-18T02:15:17;9.00;99.90
2106;DHT22;1059;52.548;13.408;2023-05-18T02:17:45;9.00;99.90
2106;DHT22;1059;52.548;13.408;2023-05-18T02:20:13;9.00;99.90
2106;DHT22;1059;52.548;13.408;2023-05-18T02:22:43;8.90;99.90
2106;DHT22;1059;52.548;13.408;2023-05-18T02:25:10;9.00;99.90
2106;DHT22;1059;52.548;13.408;2023-05-18T02:27:37;8.90;99.90
2106;DHT22;1059;52.548;13.408;2023-05-18T02:30:05;8.90;99.90
2106;DHT22;1059;52.548;13.408;2023-05-18T02:32:33;8.90;99.90
2106;DHT22;1059;52.548;13.408;2023-05-18T02:35:04;8.90;99.90
2106;DHT22;1059;52.548;13.408;2023-05-18T02:37:31;8.90;99.90
2106;DHT22;1059;52.548;13.408;2023-05-18T02:40:05;8.90;99.90
2106;DHT22;1059;52.548;13.408;2023-05-18T02:42:32;8.90;99.90
2106;DHT22;1059;52.548;13.408;2023-05-18T02:44:59;8.90;99.90
2106;DHT22;1059;52.548;13.408;2023-05-18T02:47:26;8.90;99.90
2106;DHT22;1059;52.548;13.408;2023-05-18T02:49:53;8.90;99.90
2106;DHT22;1059;52.548;13.408;2023-05-18T02:52:22;8.90;99.90
2106;DHT22;1059;52.548;13.408;2023-05-18T02:54:48;8.90;99.90
2106;DHT22;1059;52.548;13.408;2023-05-18T02:57:15;8.90;99.90
2106;DHT22;1059;52.548;13.408;2023-05-18T02:59:42;8.90;99.90
2106;DHT22;1059;52.548;13.408;2023-05-18T03:02:09;8.90;99.90
2106;DHT22;1059;52.548;13.408;2023-05-18T03:04:38;8.90;99.90
2106;DHT22;1059;52.548;13.408;2023-05-18T03:07:06;8.80;99.90
2106;DHT22;1059;52.548;13.408;2023-05-18T03:09:34;8.80;99.90
2106;DHT22;1059;52.548;13.408;2023-05-18T03:12:01;8.80;99.90
2106;DHT22;1059;52.548;13.408;2023-05-18T03:14:28;8.80;99.90
2106;DHT22;1059;52.548;13.408;2023-05-18T03:16:55;8.80;99.90
2106;DHT22;1059;52.548;13.408;2023-05-18T03:19:22;8.70;99.90
2106;DHT22;1059;52.548;13.408;2023-05-18T03:21:49;8.70;99.90
2106;DHT22;1059;52.548;13.408;2023-05-18T03:24:15;8.70;99.90
2106;DHT22;1059;52.548;13.408;2023-05-18T03:26:44;8.70;99.90
2106;DHT22;1059;52.548;13.408;2023-05-18T03:29:10;8.70;99.90
2106;DHT22;1059;52.548;13.408;2023-05-18T03:31:38;8.70;99.90
2106;DHT22;1059;52.548;13.408;2023-05-18T03:34:05;8.70;99.90
2106;DHT22;1059;52.548;13.408;2023-05-18T03:36:32;8.70;99.90
2106;DHT22;1059;52.548;13.408;2023-05-18T03:39:00;8.60;99.90
2106;DHT22;1059;52.548;13.408;2023-05-18T03:41:27;8.60;99.90
2106;DHT22;1059;52.548;13.408;2023-05-18T03:43:55;8.60;99.90
2106;DHT22;1059;52.548;13.408;2023-05-18T03:46:22;8.60;99.90
2106;DHT22;1059;52.548;13.408;2023-05-18T03:48:49;8.60;99.90
2106;DHT22;1059;52.548;13.408;2023-05-18T03:51:18;8.50;99.90
2106;DHT22;1059;52.548;13.408;2023-05-18T03:53:45;8.50;99.90
2106;DHT22;1059;52.548;13.408;2023-05-18T03:56:12;8.50;99.90
2106;DHT22;1059;52.548;13.408;2023-05-18T03:58:39;8.50;99.90
2106;DHT22;1059;52.548;13.408;2023-05-18T04:01:08;8.40;99.90
2106;DHT22;1059;52.548;13.408;2023-05-18T04:03:35;8.40;99.90
2106;DHT22;1059;52.548;13.408;2023-05-18T04:06:02;8.40;99.90
2106;DHT22;1059;52.548;13.408;2023-05-18T04:08:28;8.40;99.90
2106;DHT22;1059;52.548;13.408;2023-05-18T04:10:58;8.40;99.90
2106;DHT22;1059;52.548;13.408;2023-05-18T04:13:25;8.50;99.90
2106;DHT22;1059;52.548;13.408;2023-05-18T04:15:52;8.50;99.90
2106;DHT22;1059;52.548;13.408;2023-05-18T04:18:20;8.50;99.90
2106;DHT22;1059;52.548;13.408;2023-05-18T04:20:47;8.50;99.90
2106;DHT22;1059;52.548;13.408;2023-05-18T04:23:15;8.50;99.90
2106;DHT22;1059;52.548;13.408;2023-05-18T04:25:41;8.50;99.90
2106;DHT22;1059;52.548;13.408;2023-05-18T04:28:08;8.50;99.90
2106;DHT22;1059;52.548;13.408;2023-05-18T04:30:35;8.50;99.90
2106;DHT22;1059;52.548;13.408;2023-05-18T04:33:03;8.50;99.90
2106;DHT22;1059;52.548;13.408;2023-05-18T04:35:32;8.50;99.90
2106;DHT22;1059;52.548;13.408;2023-05-18T04:37:59;8.50;99.90
2106;DHT22;1059;52.548;13.408;2023-05-18T04:40:27;8.60;99.90
2106;DHT22;1059;52.548;13.408;2023-05-18T04:42:53;8.60;99.90
2106;DHT22;1059;52.548;13.408;2023-05-18T04:45:20;8.60;99.90
2106;DHT22;1059;52.548;13.408;2023-05-18T04:47:48;8.60;99.90
2106;DHT22;1059;52.548;13.408;2023-05-18T04:50:18;8.60;99.90
2106;DHT22;1059;52.548;13.408;2023-05-18T04:52:49;8.60;99.90
2106;DHT22;1059;52.548;13.408;2023-05-18T04:55:17;8.70;99.90
2106;DHT22;1059;52.548;13.408;2023-05-18T04:57:47;8.70;99.90
2106;DHT22;1059;52.548;13.408;2023-05-18T05:00:15;8.70;99.90
2106;DHT22;1059;52.548;13.408;2023-05-18T05:02:42;8.80;99.90
2106;DHT22;1059;52.548;13.408;2023-05-18T05:05:09;8.80;99.90
2106;DHT22;1059;52.548;13.408;2023-05-18T05:07:36;8.90;99.90
2106;DHT22;1059;52.548;13.408;2023-05-18T05:10:05;8.90;99.90
2106;DHT22;1059;52.548;13.408;2023-05-18T05:12:35;8.90;99.90
2106;DHT22;1059;52.548;13.408;2023-05-18T05:15:02;8.90;99.90
2106;DHT22;1059;52.548;13.408;2023-05-18T05:17:29;8.90;99.90
2106;DHT22;1059;52.548;13.408;2023-05-18T05:19:56;9.00;99.90
2106;DHT22;1059;52.548;13.408;2023-05-18T05:22:23;9.00;99.90
2106;DHT22;1059;52.548;13.408;2023-05-18T05:24:49;9.10;99.90
2106;DHT22;1059;52.548;13.408;2023-05-18T05:27:18;9.10;99.90
2106;DHT22;1059;52.548;13.408;2023-05-18T05:29:45;9.20;99.90
2106;DHT22;1059;52.548;13.408;2023-05-18T05:32:12;9.20;99.90
2106;DHT22;1059;52.548;13.408;2023-05-18T05:34:39;9.20;99.90
2106;DHT22;1059;52.548;13.408;2023-05-18T05:37:09;9.30;99.90
2106;DHT22;1059;52.548;13.408;2023-05-18T05:39:36;9.30;99.90
2106;DHT22;1059;52.548;13.408;2023-05-18T05:42:05;9.30;99.90
2106;DHT22;1059;52.548;13.408;2023-05-18T05:44:34;9.40;99.90
2106;DHT22;1059;52.548;13.408;2023-05-18T05:47:01;9.40;99.90
2106;DHT22;1059;52.548;13.408;2023-05-18T05:49:28;9.40;99.90
2106;DHT22;1059;52.548;13.408;2023-05-18T05:51:55;9.50;99.90
2106;DHT22;1059;52.548;13.408;2023-05-18T05:54:22;9.50;99.90
2106;DHT22;1059;52.548;13.408;2023-05-18T05:56:48;9.50;99.90
2106;DHT22;1059;52.548;13.408;2023-05-18T05:59:15;9.60;99.90
2106;DHT22;1059;52.548;13.408;2023-05-18T06:01:43;9.60;99.90
2106;DHT22;1059;52.548;13.408;2023-05-18T06:04:10;9.60;99.90
2106;DHT22;1059;52.548;13.408;2023-05-18T06:06:39;9.70;99.90
2106;DHT22;1059;52.548;13.408;2023-05-18T06:09:08;9.70;99.90
2106;DHT22;1059;52.548;13.408;2023-05-18T06:11:35;9.80;99.90
2106;DHT22;1059;52.548;13.408;2023-05-18T06:14:02;9.80;99.90
2106;DHT22;1059;52.548;13.408;2023-05-18T06:16:29;9.90;99.90
2106;DHT22;1059;52.548;13.408;2023-05-18T06:18:57;10.00;99.90
2106;DHT22;1059;52.548;13.408;2023-05-18T06:21:24;10.00;99.90
2106;DHT22;1059;52.548;13.408;2023-05-18T06:23:51;10.10;99.90
2106;DHT22;1059;52.548;13.408;2023-05-18T06:26:18;10.10;99.90
2106;DHT22;1059;52.548;13.408;2023-05-18T06:28:46;10.20;99.90
2106;DHT22;1059;52.548;13.408;2023-05-18T06:31:13;10.30;99.90
2106;DHT22;1059;52.548;13.408;2023-05-18T06:33:40;10.30;99.90
2106;DHT22;1059;52.548;13.408;2023-05-18T06:36:08;10.30;99.90
2106;DHT22;1059;52.548;13.408;2023-05-18T06:38:35;10.40;99.90
2106;DHT22;1059;52.548;13.408;2023-05-18T06:41:02;10.50;99.90
2106;DHT22;1059;52.548;13.408;2023-05-18T06:43:29;10.50;99.90
2106;DHT22;1059;52.548;13.408;2023-05-18T06:45:56;10.60;99.90
2106;DHT22;1059;52.548;13.408;2023-05-18T06:48:26;10.70;99.90
2106;DHT22;1059;52.548;13.408;2023-05-18T06:50:53;10.70;99.90
2106;DHT22;1059;52.548;13.408;2023-05-18T06:53:21;10.70;99.90
2106;DHT22;1059;52.548;13.408;2023-05-18T06:55:48;10.80;99.90
2106;DHT22;1059;52.548;13.408;2023-05-18T06:58:15;10.80;99.90
2106;DHT22;1059;52.548;13.408;2023-05-18T07:00:42;10.90;99.90
2106;DHT22;1059;52.548;13.408;2023-05-18T07:03:09;10.90;99.90
2106;DHT22;1059;52.548;13.408;2023-05-18T07:05:35;10.90;99.90
2106;DHT22;1059;52.548;13.408;2023-05-18T07:08:03;11.00;99.90
2106;DHT22;1059;52.548;13.408;2023-05-18T07:10:31;11.00;99.90
2106;DHT22;1059;52.548;13.408;2023-05-18T07:12:59;11.00;99.90
2106;DHT22;1059;52.548;13.408;2023-05-18T07:15:26;11.10;99.90
2106;DHT22;1059;52.548;13.408;2023-05-18T07:17:53;11.10;99.90
2106;DHT22;1059;52.548;13.408;2023-05-18T07:20:20;11.10;99.90
2106;DHT22;1059;52.548;13.408;2023-05-18T07:22:47;11.20;99.90
2106;DHT22;1059;52.548;13.408;2023-05-18T07:25:15;11.20;99.90
2106;DHT22;1059;52.548;13.408;2023-05-18T07:27:43;11.30;99.90
2106;DHT22;1059;52.548;13.408;2023-05-18T07:30:11;11.30;99.90
2106;DHT22;1059;52.548;13.408;2023-05-18T07:32:37;11.30;99.90
2106;DHT22;1059;52.548;13.408;2023-05-18T07:35:05;11.40;99.90
2106;DHT22;1059;52.548;13.408;2023-05-18T07:37:32;11.40;99.90
2106;DHT22;1059;52.548;13.408;2023-05-18T07:39:59;11.50;99.90
2106;DHT22;1059;52.548;13.408;2023-05-18T07:42:26;11.60;99.90
2106;DHT22;1059;52.548;13.408;2023-05-18T07:44:54;11.60;99.90
2106;DHT22;1059;52.548;13.408;2023-05-18T07:47:21;11.70;99.90
2106;DHT22;1059;52.548;13.408;2023-05-18T07:49:48;11.70;99.90
2106;DHT22;1059;52.548;13.408;2023-05-18T07:52:15;11.80;99.90
2106;DHT22;1059;52.548;13.408;2023-05-18T07:54:42;12.00;99.90
2106;DHT22;1059;52.548;13.408;2023-05-18T07:57:08;12.00;99.90
2106;DHT22;1059;52.548;13.408;2023-05-18T07:59:35;12.20;99.90
2106;DHT22;1059;52.548;13.408;2023-05-18T08:02:04;12.30;99.90
2106;DHT22;1059;52.548;13.408;2023-05-18T08:04:30;12.40;99.90
2106;DHT22;1059;52.548;13.408;2023-05-18T08:06:57;12.60;99.90
2106;DHT22;1059;52.548;13.408;2023-05-18T08:09:25;12.70;99.90
2106;DHT22;1059;52.548;13.408;2023-05-18T08:11:52;12.80;99.90
2106;DHT22;1059;52.548;13.408;2023-05-18T08:14:19;12.90;99.90
2106;DHT22;1059;52.548;13.408;2023-05-18T08:16:46;13.00;99.90
2106;DHT22;1059;52.548;13.408;2023-05-18T08:19:14;13.10;99.90
2106;DHT22;1059;52.548;13.408;2023-05-18T08:21:41;13.20;99.90
2106;DHT22;1059;52.548;13.408;2023-05-18T08:24:10;13.20;99.90
2106;DHT22;1059;52.548;13.408;2023-05-18T08:26:37;13.30;99.90
2106;DHT22;1059;52.548;13.408;2023-05-18T08:29:04;13.40;99.90
2106;DHT22;1059;52.548;13.408;2023-05-18T08:31:34;13.50;99.90
2106;DHT22;1059;52.548;13.408;2023-05-18T08:34:02;13.70;99.90
2106;DHT22;1059;52.548;13.408;2023-05-18T08:36:31;13.80;99.90
2106;DHT22;1059;52.548;13.408;2023-05-18T08:38:58;14.00;99.90
2106;DHT22;1059;52.548;13.408;2023-05-18T08:41:29;14.10;99.90
2106;DHT22;1059;52.548;13.408;2023-05-18T08:44:00;14.20;99.90
2106;DHT22;1059;52.548;13.408;2023-05-18T08:46:31;14.30;99.90
2106;DHT22;1059;52.548;13.408;2023-05-18T08:49:00;14.40;99.90
2106;DHT22;1059;52.548;13.408;2023-05-18T08:51:28;14.40;99.90
2106;DHT22;1059;52.548;13.408;2023-05-18T08:53:57;14.40;99.90
2106;DHT22;1059;52.548;13.408;2023-05-18T08:56:25;14.40;99.90
2106;DHT22;1059;52.548;13.408;2023-05-18T08:58:54;14.30;99.90
2106;DHT22;1059;52.548;13.408;2023-05-18T09:01:22;14.30;99.90
2106;DHT22;1059;52.548;13.408;2023-05-18T09:03:53;14.30;99.90
2106;DHT22;1059;52.548;13.408;2023-05-18T09:06:21;14.30;99.90
2106;DHT22;1059;52.548;13.408;2023-05-18T09:08:51;14.30;99.90
2106;DHT22;1059;52.548;13.408;2023-05-18T09:11:21;14.40;99.90
2106;DHT22;1059;52.548;13.408;2023-05-18T09:13:48;14.50;99.90
2106;DHT22;1059;52.548;13.408;2023-05-18T09:16:16;14.60;99.90
2106;DHT22;1059;52.548;13.408;2023-05-18T09:18:43;14.70;99.90
2106;DHT22;1059;52.548;13.408;2023-05-18T09:21:10;14.90;98.90
2106;DHT22;1059;52.548;13.408;2023-05-18T09:23:38;15.00;98.30
2106;DHT22;1059;52.548;13.408;2023-05-18T09:26:05;15.10;98.00
2106;DHT22;1059;52.548;13.408;2023-05-18T09:28:37;15.20;97.30
2106;DHT22;1059;52.548;13.408;2023-05-18T09:31:05;15.30;97.50
2106;DHT22;1059;52.548;13.408;2023-05-18T09:33:35;15.40;97.60
2106;DHT22;1059;52.548;13.408;2023-05-18T09:36:04;15.40;97.40
2106;DHT22;1059;52.548;13.408;2023-05-18T09:38:35;15.50;96.20
2106;DHT22;1059;52.548;13.408;2023-05-18T09:41:02;15.60;95.30
2106;DHT22;1059;52.548;13.408;2023-05-18T09:43:29;15.60;93.40
2106;DHT22;1059;52.548;13.408;2023-05-18T09:46:04;15.60;93.10
2106;DHT22;1059;52.548;13.408;2023-05-18T09:48:34;15.60;91.50
2106;DHT22;1059;52.548;13.408;2023-05-18T09:51:01;15.60;91.50
2106;DHT22;1059;52.548;13.408;2023-05-18T09:53:28;15.50;91.20
2106;DHT22;1059;52.548;13.408;2023-05-18T09:55:55;15.40;90.80
2106;DHT22;1059;52.548;13.408;2023-05-18T09:58:30;15.30;90.20
2106;DHT22;1059;52.548;13.408;2023-05-18T10:01:00;15.30;90.50
2106;DHT22;1059;52.548;13.408;2023-05-18T10:03:32;15.30;90.00
2106;DHT22;1059;52.548;13.408;2023-05-18T10:06:03;15.40;88.90
2106;DHT22;1059;52.548;13.408;2023-05-18T10:08:31;15.40;84.30
2106;DHT22;1059;52.548;13.408;2023-05-18T10:10:58;15.60;87.20
2106;DHT22;1059;52.548;13.408;2023-05-18T10:13:26;15.80;86.70
2106;DHT22;1059;52.548;13.408;2023-05-18T10:15:55;16.00;86.70
2106;DHT22;1059;52.548;13.408;2023-05-18T10:18:25;16.30;85.00
2106;DHT22;1059;52.548;13.408;2023-05-18T10:20:55;16.50;84.30
2106;DHT22;1059;52.548;13.408;2023-05-18T10:23:23;16.80;80.80
2106;DHT22;1059;52.548;13.408;2023-05-18T10:25:51;17.00;74.20
2106;DHT22;1059;52.548;13.408;2023-05-18T10:28:19;17.10;72.50
2106;DHT22;1059;52.548;13.408;2023-05-18T10:30:51;17.30;71.50
2106;DHT22;1059;52.548;13.408;2023-05-18T10:33:19;17.40;69.70
2106;DHT22;1059;52.548;13.408;2023-05-18T10:35:48;17.50;69.30
2106;DHT22;1059;52.548;13.408;2023-05-18T10:38:18;17.70;65.20
2106;DHT22;1059;52.548;13.408;2023-05-18T10:40:46;17.90;64.10
2106;DHT22;1059;52.548;13.408;2023-05-18T10:43:16;17.90;62.90
2106;DHT22;1059;52.548;13.408;2023-05-18T10:45:46;18.00;62.30
2106;DHT22;1059;52.548;13.408;2023-05-18T10:48:14;18.00;60.80
2106;DHT22;1059;52.548;13.408;2023-05-18T10:50:41;18.00;59.30
2106;DHT22;1059;52.548;13.408;2023-05-18T10:53:10;18.00;58.00
2106;DHT22;1059;52.548;13.408;2023-05-18T10:55:38;17.90;57.40
2106;DHT22;1059;52.548;13.408;2023-05-18T10:58:08;17.90;56.70
2106;DHT22;1059;52.548;13.408;2023-05-18T11:00:39;17.80;57.30
2106;DHT22;1059;52.548;13.408;2023-05-18T11:03:10;17.80;58.30
2106;DHT22;1059;52.548;13.408;2023-05-18T11:05:39;17.90;56.40
2106;DHT22;1059;52.548;13.408;2023-05-18T11:08:07;18.00;56.30
2106;DHT22;1059;52.548;13.408;2023-05-18T11:10:39;18.10;56.10
2106;DHT22;1059;52.548;13.408;2023-05-18T11:13:07;18.40;56.30
2106;DHT22;1059;52.548;13.408;2023-05-18T11:16:03;18.70;56.00
2106;DHT22;1059;52.548;13.408;2023-05-18T11:18:39;18.90;53.70
2106;DHT22;1059;52.548;13.408;2023-05-18T11:21:49;18.90;52.00
2106;DHT22;1059;52.548;13.408;2023-05-18T11:24:18;18.70;51.40
2106;DHT22;1059;52.548;13.408;2023-05-18T11:26:48;18.40;51.40
2106;DHT22;1059;52.548;13.408;2023-05-18T11:29:16;18.20;52.50
2106;DHT22;1059;52.548;13.408;2023-05-18T11:31:44;18.10;52.20
2106;DHT22;1059;52.548;13.408;2023-05-18T11:34:35;18.00;52.40
2106;DHT22;1059;52.548;13.408;2023-05-18T11:37:02;18.00;52.80
2106;DHT22;1059;52.548;13.408;2023-05-18T11:39:31;17.90;52.70
2106;DHT22;1059;52.548;13.408;2023-05-18T11:42:00;18.70;53.90
2106;DHT22;1059;52.548;13.408;2023-05-18T11:44:27;20.20;50.50
2106;DHT22;1059;52.548;13.408;2023-05-18T11:46:59;21.90;46.50
2106;DHT22;1059;52.548;13.408;2023-05-18T11:49:28;23.00;41.80
2106;DHT22;1059;52.548;13.408;2023-05-18T11:52:12;23.10;37.80
2106;DHT22;1059;52.548;13.408;2023-05-18T11:54:42;22.70;36.80
2106;DHT22;1059;52.548;13.408;2023-05-18T11:57:13;22.40;36.50
2106;DHT22;1059;52.548;13.408;2023-05-18T11:59:41;22.10;36.00
2106;DHT22;1059;52.548;13.408;2023-05-18T12:02:09;21.80;35.90
2106;DHT22;1059;52.548;13.408;2023-05-18T12:04:45;21.50;35.70
2106;DHT22;1059;52.548;13.408;2023-05-18T12:07:13;21.80;36.80
2106;DHT22;1059;52.548;13.408;2023-05-18T12:09:40;22.90;36.00
2106;DHT22;1059;52.548;13.408;2023-05-18T12:12:09;24.40;33.10
2106;DHT22;1059;52.548;13.408;2023-05-18T12:14:39;25.50;30.60
2106;DHT22;1059;52.548;13.408;2023-05-18T12:17:07;26.70;28.00
2106;DHT22;1059;52.548;13.408;2023-05-18T12:19:41;27.70;25.30
2106;DHT22;1059;52.548;13.408;2023-05-18T12:22:09;28.60;22.80
2106;DHT22;1059;52.548;13.408;2023-05-18T12:24:36;28.90;21.00
2106;DHT22;1059;52.548;13.408;2023-05-18T12:27:05;29.00;20.10
2106;DHT22;1059;52.548;13.408;2023-05-18T12:29:33;29.00;19.80
2106;DHT22;1059;52.548;13.408;2023-05-18T12:32:06;29.20;18.80
2106;DHT22;1059;52.548;13.408;2023-05-18T12:34:34;29.40;18.80
2106;DHT22;1059;52.548;13.408;2023-05-18T12:37:01;29.90;17.90
2106;DHT22;1059;52.548;13.408;2023-05-18T12:39:28;30.50;16.50
2106;DHT22;1059;52.548;13.408;2023-05-18T12:42:07;30.40;16.00
2106;DHT22;1059;52.548;13.408;2023-05-18T12:44:35;30.20;15.70
2106;DHT22;1059;52.548;13.408;2023-05-18T12:47:02;29.70;15.80
2106;DHT22;1059;52.548;13.408;2023-05-18T12:49:35;29.60;15.80
2106;DHT22;1059;52.548;13.408;2023-05-18T12:52:11;29.70;15.40
2106;DHT22;1059;52.548;13.408;2023-05-18T12:54:51;29.70;15.00
2106;DHT22;1059;52.548;13.408;2023-05-18T12:57:24;29.40;15.20
2106;DHT22;1059;52.548;13.408;2023-05-18T12:59:51;29.00;15.40
2106;DHT22;1059;52.548;13.408;2023-05-18T13:02:30;28.60;15.60
2106;DHT22;1059;52.548;13.408;2023-05-18T13:05:05;28.40;15.90
2106;DHT22;1059;52.548;13.408;2023-05-18T13:07:35;28.20;16.00
2106;DHT22;1059;52.548;13.408;2023-05-18T13:10:04;28.00;15.80
2106;DHT22;1059;52.548;13.408;2023-05-18T13:12:39;27.80;16.00
2106;DHT22;1059;52.548;13.408;2023-05-18T13:15:11;27.90;16.30
2106;DHT22;1059;52.548;13.408;2023-05-18T13:17:38;27.80;16.20
2106;DHT22;1059;52.548;13.408;2023-05-18T13:20:13;27.50;16.50
2106;DHT22;1059;52.548;13.408;2023-05-18T13:22:40;27.80;16.20
2106;DHT22;1059;52.548;13.408;2023-05-18T13:25:07;28.30;16.30
2106;DHT22;1059;52.548;13.408;2023-05-18T13:27:34;29.00;15.40
2106;DHT22;1059;52.548;13.408;2023-05-18T13:30:01;29.50;14.80
2106;DHT22;1059;52.548;13.408;2023-05-18T13:32:28;30.10;13.90
2106;DHT22;1059;52.548;13.408;2023-05-18T13:34:55;30.50;13.30
2106;DHT22;1059;52.548;13.408;2023-05-18T13:37:23;30.60;12.70
2106;DHT22;1059;52.548;13.408;2023-05-18T13:39:50;30.70;12.80
2106;DHT22;1059;52.548;13.408;2023-05-18T13:42:17;31.00;12.40
2106;DHT22;1059;52.548;13.408;2023-05-18T13:44:45;31.10;11.80
2106;DHT22;1059;52.548;13.408;2023-05-18T13:47:12;31.10;12.30
2106;DHT22;1059;52.548;13.408;2023-05-18T13:49:39;31.10;12.60
2106;DHT22;1059;52.548;13.408;2023-05-18T13:52:06;31.10;12.50
2106;DHT22;1059;52.548;13.408;2023-05-18T13:54:34;31.20;12.10
2106;DHT22;1059;52.548;13.408;2023-05-18T13:57:01;31.30;12.10
2106;DHT22;1059;52.548;13.408;2023-05-18T13:59:27;31.50;11.60
2106;DHT22;1059;52.548;13.408;2023-05-18T14:01:54;31.50;11.60
2106;DHT22;1059;52.548;13.408;2023-05-18T14:04:21;31.50;10.90
2106;DHT22;1059;52.548;13.408;2023-05-18T14:06:48;31.40;10.60
2106;DHT22;1059;52.548;13.408;2023-05-18T14:09:18;31.30;11.10
2106;DHT22;1059;52.548;13.408;2023-05-18T14:11:47;31.30;10.90
2106;DHT22;1059;52.548;13.408;2023-05-18T14:14:13;31.30;10.90
2106;DHT22;1059;52.548;13.408;2023-05-18T14:16:40;31.30;10.90
2106;DHT22;1059;52.548;13.408;2023-05-18T14:19:07;31.30;10.70
2106;DHT22;1059;52.548;13.408;2023-05-18T14:21:34;31.10;10.80
2106;DHT22;1059;52.548;13.408;2023-05-18T14:24:01;30.80;10.40
2106;DHT22;1059;52.548;13.408;2023-05-18T14:26:31;30.50;10.70
2106;DHT22;1059;52.548;13.408;2023-05-18T14:29:00;30.30;11.10
2106;DHT22;1059;52.548;13.408;2023-05-18T14:31:26;30.20;11.40
2106;DHT22;1059;52.548;13.408;2023-05-18T14:33:53;30.10;11.70
2106;DHT22;1059;52.548;13.408;2023-05-18T14:36:20;30.20;11.70
2106;DHT22;1059;52.548;13.408;2023-05-18T14:38:47;30.40;11.00
2106;DHT22;1059;52.548;13.408;2023-05-18T14:41:14;30.60;10.90
2106;DHT22;1059;52.548;13.408;2023-05-18T14:43:41;30.70;10.90
2106;DHT22;1059;52.548;13.408;2023-05-18T14:46:09;30.60;10.80
2106;DHT22;1059;52.548;13.408;2023-05-18T14:48:36;30.70;10.30
2106;DHT22;1059;52.548;13.408;2023-05-18T14:51:03;30.70;10.20
2106;DHT22;1059;52.548;13.408;2023-05-18T14:53:29;30.40;10.20
2106;DHT22;1059;52.548;13.408;2023-05-18T14:55:56;29.90;10.60
2106;DHT22;1059;52.548;13.408;2023-05-18T14:58:23;29.10;11.20
2106;DHT22;1059;52.548;13.408;2023-05-18T15:00:50;28.30;11.80
2106;DHT22;1059;52.548;13.408;2023-05-18T15:03:18;27.70;12.40
2106;DHT22;1059;52.548;13.408;2023-05-18T15:05:45;27.10;13.10
2106;DHT22;1059;52.548;13.408;2023-05-18T15:08:12;26.60;13.60
2106;DHT22;1059;52.548;13.408;2023-05-18T15:10:39;26.30;14.20
2106;DHT22;1059;52.548;13.408;2023-05-18T15:13:06;26.10;14.20
2106;DHT22;1059;52.548;13.408;2023-05-18T15:15:33;25.80;14.30
2106;DHT22;1059;52.548;13.408;2023-05-18T15:17:59;25.40;14.80
2106;DHT22;1059;52.548;13.408;2023-05-18T15:20:28;25.00;15.20
2106;DHT22;1059;52.548;13.408;2023-05-18T15:22:55;24.70;15.70
2106;DHT22;1059;52.548;13.408;2023-05-18T15:25:21;24.50;16.00
2106;DHT22;1059;52.548;13.408;2023-05-18T15:27:48;24.20;16.00
2106;DHT22;1059;52.548;13.408;2023-05-18T15:30:17;23.80;16.60
2106;DHT22;1059;52.548;13.408;2023-05-18T15:32:44;23.50;16.60
2106;DHT22;1059;52.548;13.408;2023-05-18T15:35:11;23.30;16.80
2106;DHT22;1059;52.548;13.408;2023-05-18T15:37:41;23.10;16.90
2106;DHT22;1059;52.548;13.408;2023-05-18T15:40:09;22.80;17.70
2106;DHT22;1059;52.548;13.408;2023-05-18T15:42:36;22.70;17.90
2106;DHT22;1059;52.548;13.408;2023-05-18T15:45:03;22.60;18.30
2106;DHT22;1059;52.548;13.408;2023-05-18T15:47:30;22.50;18.00
2106;DHT22;1059;52.548;13.408;2023-05-18T15:49:57;22.30;18.20
2106;DHT22;1059;52.548;13.408;2023-05-18T15:52:23;22.20;18.00
2106;DHT22;1059;52.548;13.408;2023-05-18T15:54:52;22.00;18.70
2106;DHT22;1059;52.548;13.408;2023-05-18T15:57:18;21.90;18.90
2106;DHT22;1059;52.548;13.408;2023-05-18T15:59:46;21.80;18.70